Allemand, Louisiana
Current Conditions -  °F | °C
As of 12:35 AM on Thursday 27 Nov 2014 (Local Time) from KHUM Reporting Station
Clear Clear  
Wind Chill: 52°   Ceiling: Unl
Heat Index: 52°   Visibility: 7mi
Dew Point: 51°   Wind: 5mph
Humidity: 97%   Direction: 260°W
Pressure: 30.29"   Gusts: NA
Location:  29.5867°N, 90.8252°W
Report Text: KHUM 270635Z AUTO 26004KT 7SM CLR 11/11 A3029 RMK AO2 T01110107
Loading
Personal Weather Stations






























Interactive Weather Map New forecast layout! Learn more

10-Day Weather Forecast

Advertisements
Track Severe Weather on mobile